This is the latest recevied weather packets stored in our database for station/object KA5ZCI. If no packets are shown the sender has not sent any weather packets the latest 10 day(s).
| Time | Temp. | Humidity | Pressure | Rain* | Wind** | Luminosity | Snow |
|---|---|---|---|---|---|---|---|
| 1777670704 | 16.67° C | 96% | 1011 hPa | 0 mm | - | 0 W/m² | - |
| 1777670404 | 16.67° C | 96% | 1011 hPa | 0 mm | - | 0 W/m² | - |
| 1777669804 | 16.67° C | 96% | 1011 hPa | 0 mm | - | 0 W/m² | - |
| 1777668603 | 16.67° C | 96% | 1011.3 hPa | 0 mm | - | 0 W/m² | - |
| 1777665304 | 17.22° C | 95% | 1010.6 hPa | 0.51 mm | - | 0 W/m² | - |
| 1777664404 | 17.78° C | 95% | 1010.9 hPa | 0.51 mm | - | 0 W/m² | - |
| 1777662004 | 18.89° C | 95% | 1009.3 hPa | 0 mm | - | 0 W/m² | - |
| 1777661103 | 18.89° C | 94% | 1009.2 hPa | 0 mm | - | 0 W/m² | - |
| 1777659304 | 19.44° C | 92% | 1009.1 hPa | 0 mm | - | 0 W/m² | - |
| 1777659004 | 19.44° C | 92% | 1009.3 hPa | 0 mm | - | 0 W/m² | - |
| 1777656903 | 20° C | 91% | 1010.3 hPa | 0 mm | - | 0 W/m² | - |
| 1777653904 | 20° C | 89% | 1011.7 hPa | 0 mm | - | 0 W/m² | - |
| 1777652104 | 21.11° C | 88% | 1011.5 hPa | 0 mm | - | 0 W/m² | - |
| 1777651804 | 21.11° C | 88% | 1011.4 hPa | 0 mm | - | 0 W/m² | - |
| 1777649404 | 20° C | 92% | 1012.9 hPa | 0 mm | - | 0 W/m² | - |
| 1777649103 | 20° C | 92% | 1012.9 hPa | 0 mm | - | 0 W/m² | - |
| 1777647904 | 20° C | 92% | 1012.7 hPa | 0 mm | - | 0 W/m² | - |
| 1777647304 | 20° C | 92% | 1012.5 hPa | 0 mm | - | 0 W/m² | - |
| 1777646104 | 20° C | 92% | 1012.5 hPa | 0 mm | - | 0 W/m² | - |
| 1777645204 | 20.56° C | 91% | 1011.8 hPa | 0 mm | - | 0 W/m² | - |
| 1777644903 | 20.56° C | 91% | 1011.6 hPa | 0 mm | - | 0 W/m² | - |
| 1777644304 | 21.11° C | 90% | 1011.2 hPa | 0 mm | - | 0 W/m² | - |
| 1777643404 | 21.11° C | 91% | 1011.2 hPa | 0 mm | - | 0 W/m² | - |
| 1777642204 | 21.11° C | 91% | 1010.7 hPa | 0 mm | - | 0 W/m² | - |
| 1777636803 | 20° C | 94% | 1010.8 hPa | 0 mm | - | 0 W/m² | - |
* Rain latest hour (hover to see other rain measurements)
** Current wind speed in m/s (hover to see current wind gust speed)